createdAt,value
2023-10-10T00:01:45.523Z,21.57
2023-10-10T00:04:13.453Z,21.23
2023-10-10T00:06:41.831Z,21.37
2023-10-10T00:09:13.256Z,20.47
2023-10-10T00:11:49.529Z,18.90
2023-10-10T00:14:20.646Z,20.30
2023-10-10T00:16:49.680Z,21.43
2023-10-10T00:19:29.823Z,20.93
2023-10-10T00:21:57.695Z,21.87
2023-10-10T00:24:32.074Z,21.07
2023-10-10T00:27:00.425Z,20.33
2023-10-10T00:29:28.266Z,20.97
2023-10-10T00:32:06.712Z,21.20
2023-10-10T00:34:38.456Z,20.07
2023-10-10T00:37:14.427Z,19.30
2023-10-10T00:39:41.762Z,19.43
2023-10-10T00:42:21.166Z,20.00
2023-10-10T00:44:49.380Z,20.90
2023-10-10T00:47:17.733Z,18.80
2023-10-10T00:49:46.658Z,18.40
2023-10-10T00:52:18.022Z,19.00
2023-10-10T00:54:46.776Z,18.00
2023-10-10T00:57:15.354Z,18.00
2023-10-10T00:59:49.656Z,17.67
2023-10-10T01:02:18.846Z,17.63
2023-10-10T01:04:52.513Z,18.07
2023-10-10T01:07:20.337Z,17.43
2023-10-10T01:09:57.962Z,16.40
2023-10-10T01:12:26.529Z,15.43
2023-10-10T01:14:56.021Z,16.33
2023-10-10T01:17:30.196Z,16.03
2023-10-10T01:20:00.203Z,15.17
2023-10-10T01:22:39.246Z,15.73
2023-10-10T01:25:25.175Z,14.47
2023-10-10T01:27:55.717Z,15.33
2023-10-10T01:30:43.211Z,15.87
2023-10-10T01:33:17.052Z,15.53
2023-10-10T01:35:47.382Z,16.27
2023-10-10T01:38:35.879Z,15.70
2023-10-10T01:41:16.385Z,15.23
2023-10-10T01:43:47.643Z,17.57
2023-10-10T01:46:21.256Z,16.47
2023-10-10T01:48:48.852Z,16.13
2023-10-10T01:51:16.535Z,17.30
2023-10-10T01:53:44.341Z,17.23
2023-10-10T01:56:14.726Z,16.67
2023-10-10T01:58:42.446Z,16.93
2023-10-10T02:01:20.702Z,16.63
2023-10-10T02:03:49.546Z,15.77
2023-10-10T02:06:25.782Z,16.63
2023-10-10T02:09:19.809Z,16.50
2023-10-10T02:11:56.107Z,16.93
2023-10-10T02:14:26.655Z,17.33
2023-10-10T02:16:57.123Z,16.83
2023-10-10T02:19:42.232Z,17.10
2023-10-10T02:22:20.595Z,18.00
2023-10-10T02:24:50.860Z,17.83
2023-10-10T02:27:23.498Z,18.47
2023-10-10T02:29:51.128Z,18.30
2023-10-10T02:32:22.016Z,17.83
2023-10-10T02:35:17.094Z,18.80
2023-10-10T02:37:47.196Z,17.83
2023-10-10T02:40:17.502Z,16.90
2023-10-10T02:43:10.393Z,17.97
2023-10-10T02:45:38.030Z,18.57
2023-10-10T02:48:09.286Z,17.80
2023-10-10T02:50:42.850Z,17.70
2023-10-10T02:53:10.444Z,19.33
2023-10-10T02:55:42.421Z,18.77
2023-10-10T02:58:21.767Z,18.37
2023-10-10T03:00:52.929Z,18.77
2023-10-10T03:03:20.511Z,17.20
2023-10-10T03:05:59.441Z,17.23
2023-10-10T03:08:36.450Z,19.17
2023-10-10T03:11:16.076Z,17.80
2023-10-10T03:13:49.628Z,19.67
2023-10-10T03:16:19.773Z,20.67
2023-10-10T03:18:56.497Z,21.60
2023-10-10T03:21:44.365Z,20.47
2023-10-10T03:24:23.709Z,18.20
2023-10-10T03:27:01.498Z,17.63
2023-10-10T03:29:38.690Z,17.07
2023-10-10T03:32:21.261Z,21.40
2023-10-10T03:34:58.592Z,21.77
2023-10-10T03:37:28.758Z,26.90
2023-10-10T03:39:58.757Z,30.67
2023-10-10T03:42:45.033Z,29.10
2023-10-10T03:45:30.946Z,24.10
2023-10-10T03:48:16.899Z,23.47
2023-10-10T03:51:03.665Z,22.93
2023-10-10T03:53:49.567Z,21.10
2023-10-10T03:56:39.282Z,19.20
2023-10-10T03:59:26.107Z,18.43
2023-10-10T04:02:15.197Z,20.63
2023-10-10T04:05:12.009Z,19.20
2023-10-10T04:08:07.441Z,19.13
2023-10-10T04:10:53.161Z,18.33
2023-10-10T04:13:39.273Z,18.47
2023-10-10T04:16:28.280Z,17.67
2023-10-10T04:19:14.568Z,17.63
2023-10-10T04:22:00.683Z,17.97
2023-10-10T04:24:46.559Z,17.50
2023-10-10T04:27:32.492Z,17.50
2023-10-10T04:30:18.536Z,17.63
2023-10-10T04:33:04.593Z,17.87
2023-10-10T04:35:50.377Z,19.47
2023-10-10T04:38:36.551Z,19.47
2023-10-10T04:41:22.570Z,17.63
2023-10-10T04:44:08.647Z,16.53
2023-10-10T04:46:54.757Z,16.20
2023-10-10T04:49:40.536Z,15.87
2023-10-10T04:52:26.302Z,16.73
2023-10-10T04:55:12.579Z,15.83
2023-10-10T04:57:58.486Z,15.50
2023-10-10T05:00:44.305Z,15.17
2023-10-10T05:03:30.313Z,15.23
2023-10-10T05:06:16.752Z,15.43
2023-10-10T05:09:02.689Z,15.70
2023-10-10T05:11:48.676Z,16.97
2023-10-10T05:14:34.956Z,16.20
2023-10-10T05:17:21.240Z,17.37
2023-10-10T05:20:07.048Z,16.50
2023-10-10T05:22:52.934Z,16.70
2023-10-10T05:25:26.188Z,16.37
2023-10-10T05:27:59.948Z,16.53
2023-10-10T05:30:46.927Z,16.70
2023-10-10T05:33:15.045Z,17.53
2023-10-10T05:35:48.900Z,16.87
2023-10-10T05:38:17.102Z,15.73
2023-10-10T05:40:44.676Z,17.73
2023-10-10T05:43:20.367Z,16.67
2023-10-10T05:45:48.937Z,17.53
2023-10-10T05:48:16.230Z,18.43
2023-10-10T05:50:43.952Z,17.80
2023-10-10T05:53:11.814Z,17.47
2023-10-10T05:55:39.683Z,17.23
2023-10-10T05:58:07.317Z,17.80
2023-10-10T06:00:38.135Z,18.00
2023-10-10T06:03:09.092Z,17.27
2023-10-10T06:05:36.769Z,15.93
2023-10-10T06:08:07.500Z,16.67
2023-10-10T06:10:35.015Z,15.70
2023-10-10T06:13:05.440Z,16.87
2023-10-10T06:15:36.299Z,15.40
2023-10-10T06:18:13.601Z,16.10
2023-10-10T06:23:22.319Z,15.90
2023-10-10T06:25:50.046Z,14.37
2023-10-10T06:28:37.679Z,16.23
2023-10-10T06:31:11.712Z,14.63
2023-10-10T06:33:42.496Z,15.90
2023-10-10T06:36:33.640Z,17.17
2023-10-10T06:39:21.739Z,16.07
2023-10-10T06:41:52.056Z,16.53
2023-10-10T06:44:40.378Z,16.03
2023-10-10T06:47:12.991Z,16.40
2023-10-10T06:49:59.300Z,16.37
2023-10-10T06:52:29.469Z,15.37
2023-10-10T06:54:57.101Z,15.07
2023-10-10T06:57:39.206Z,16.40
2023-10-10T07:00:16.291Z,16.53
2023-10-10T07:02:49.086Z,14.90
2023-10-10T07:05:20.889Z,15.57
2023-10-10T07:07:58.596Z,15.33
2023-10-10T07:10:37.038Z,15.53
2023-10-10T07:13:04.870Z,14.30
2023-10-10T07:15:36.377Z,16.47
2023-10-10T07:18:11.243Z,15.50
2023-10-10T07:20:57.385Z,14.57
2023-10-10T07:23:25.902Z,14.43
2023-10-10T07:26:02.452Z,13.93
2023-10-10T07:28:30.456Z,14.07
2023-10-10T07:30:57.871Z,14.63
2023-10-10T07:33:27.442Z,14.50
2023-10-10T07:35:55.122Z,13.60
2023-10-10T07:38:29.123Z,14.53
2023-10-10T07:40:56.692Z,13.30
2023-10-10T07:43:28.857Z,13.80
2023-10-10T07:45:56.287Z,13.27
2023-10-10T07:48:29.501Z,13.27
2023-10-10T07:51:09.385Z,13.30
2023-10-10T07:53:44.108Z,12.07
2023-10-10T07:56:11.686Z,12.00
2023-10-10T07:58:51.912Z,11.47
2023-10-10T08:01:20.582Z,11.43
2023-10-10T08:03:48.485Z,11.03
2023-10-10T08:06:23.780Z,11.43
2023-10-10T08:09:11.223Z,11.57
2023-10-10T08:11:38.882Z,12.07
2023-10-10T08:14:10.067Z,12.33
2023-10-10T08:16:38.482Z,11.97
2023-10-10T08:19:06.184Z,12.60
2023-10-10T08:21:38.776Z,11.97
2023-10-10T08:24:08.145Z,12.90
2023-10-10T08:26:42.262Z,12.97
2023-10-10T08:29:16.401Z,13.13
2023-10-10T08:31:44.193Z,11.87
2023-10-10T08:34:15.904Z,12.10
2023-10-10T08:36:45.427Z,12.33
2023-10-10T08:39:33.227Z,14.03
2023-10-10T08:42:01.486Z,12.33
2023-10-10T08:44:30.413Z,12.27
2023-10-10T08:46:59.909Z,14.10
2023-10-10T08:49:29.573Z,13.13
2023-10-10T08:52:02.873Z,13.53
2023-10-10T08:54:30.364Z,13.13
2023-10-10T08:57:26.874Z,13.07
2023-10-10T08:59:54.214Z,14.30
2023-10-10T09:02:22.039Z,14.00
2023-10-10T09:04:51.939Z,14.53
2023-10-10T09:07:28.091Z,14.53
2023-10-10T09:10:07.740Z,14.27
2023-10-10T09:12:36.097Z,14.37
2023-10-10T09:15:18.221Z,14.50
2023-10-10T09:17:47.015Z,14.40
2023-10-10T09:20:24.266Z,14.17
2023-10-10T09:23:18.285Z,13.97
2023-10-10T09:25:49.856Z,17.27
2023-10-10T09:28:20.188Z,14.87
2023-10-10T09:31:13.932Z,14.80
2023-10-10T09:33:46.844Z,14.10
2023-10-10T09:36:17.514Z,15.20
2023-10-10T09:38:48.477Z,13.77
2023-10-10T09:41:37.873Z,14.33
2023-10-10T09:44:31.876Z,15.17
2023-10-10T09:47:08.339Z,13.68
2023-10-10T09:49:41.821Z,15.18
2023-10-10T09:52:31.345Z,15.15
2023-10-10T09:55:14.818Z,15.02
2023-10-10T09:57:45.931Z,16.52
2023-10-10T10:00:27.218Z,15.60
2023-10-10T10:03:01.563Z,14.82
2023-10-10T10:05:30.992Z,14.40
2023-10-10T10:08:07.742Z,14.80
2023-10-10T10:10:47.917Z,15.70
2023-10-10T10:13:15.379Z,16.90
2023-10-10T10:15:54.884Z,15.02
2023-10-10T10:18:29.038Z,15.60
2023-10-10T10:21:16.192Z,15.10
2023-10-10T10:23:47.103Z,15.20
2023-10-10T10:26:33.129Z,15.02
2023-10-10T10:29:02.159Z,15.52
2023-10-10T10:31:31.009Z,15.13
2023-10-10T10:34:29.833Z,15.85
2023-10-10T10:36:57.995Z,14.75
2023-10-10T10:39:35.983Z,14.93
2023-10-10T10:42:13.741Z,15.65
2023-10-10T10:44:54.730Z,15.88
2023-10-10T10:47:39.323Z,13.88
2023-10-10T10:50:18.794Z,14.32
2023-10-10T10:52:58.511Z,16.30
2023-10-10T10:55:29.953Z,15.73
2023-10-10T10:58:07.608Z,16.73
2023-10-10T11:01:00.160Z,16.17
2023-10-10T11:03:34.766Z,16.92
2023-10-10T11:06:07.471Z,17.08
2023-10-10T11:11:41.651Z,16.67
2023-10-10T11:14:15.702Z,16.38
2023-10-10T11:16:47.270Z,17.30
2023-10-10T11:19:24.745Z,17.77
2023-10-10T11:21:54.908Z,18.33
2023-10-10T11:24:26.830Z,17.77
2023-10-10T11:27:15.363Z,17.67
2023-10-10T11:29:46.112Z,16.85
2023-10-10T11:32:14.706Z,18.02
2023-10-10T11:34:46.123Z,17.60
2023-10-10T11:37:15.092Z,17.88
2023-10-10T11:39:49.705Z,18.83
2023-10-10T11:42:27.376Z,18.67
2023-10-10T11:44:55.588Z,17.13
2023-10-10T11:47:26.105Z,16.10
2023-10-10T11:50:06.240Z,16.10
2023-10-10T11:52:34.014Z,16.98
2023-10-10T11:55:01.600Z,17.38
2023-10-10T11:57:39.019Z,17.25
2023-10-10T12:00:26.488Z,18.00
2023-10-10T12:03:00.768Z,18.52
2023-10-10T12:05:31.307Z,18.80
2023-10-10T12:08:02.556Z,19.02
2023-10-10T12:10:48.344Z,17.70
2023-10-10T12:13:42.408Z,18.13
2023-10-10T12:16:11.993Z,17.60
2023-10-10T12:19:00.120Z,19.08
2023-10-10T12:21:27.952Z,18.23
2023-10-10T12:24:00.756Z,17.52
2023-10-10T12:26:31.523Z,19.20
2023-10-10T12:28:59.325Z,19.42
2023-10-10T12:31:26.591Z,17.85
2023-10-10T12:33:56.835Z,18.90
2023-10-10T12:36:30.254Z,19.13
2023-10-10T12:38:59.532Z,20.48
2023-10-10T12:41:27.942Z,19.13
2023-10-10T12:43:55.297Z,18.75
2023-10-10T12:46:23.006Z,19.17
2023-10-10T12:48:53.178Z,22.48
2023-10-10T12:51:23.849Z,21.45
2023-10-10T12:54:01.318Z,21.40
2023-10-10T12:56:29.222Z,21.60
2023-10-10T12:59:22.995Z,21.42
2023-10-10T13:01:56.779Z,19.70
2023-10-10T13:04:30.760Z,19.95
2023-10-10T13:07:04.220Z,20.10
2023-10-10T13:09:32.937Z,22.95
2023-10-10T13:12:04.258Z,23.38
2023-10-10T13:14:34.320Z,22.83
2023-10-10T13:17:22.058Z,21.65
2023-10-10T13:19:50.248Z,21.08
2023-10-10T13:22:22.379Z,28.80
2023-10-10T13:24:50.413Z,25.58
2023-10-10T13:27:19.149Z,25.45
2023-10-10T13:29:46.804Z,26.65
2023-10-10T13:32:14.172Z,26.27
2023-10-10T13:34:41.451Z,27.25
2023-10-10T13:37:09.279Z,26.45
2023-10-10T13:39:45.096Z,24.95
2023-10-10T13:42:18.852Z,27.00
2023-10-10T13:44:50.154Z,26.85
2023-10-10T13:47:18.398Z,27.33
2023-10-10T13:49:46.162Z,25.95
2023-10-10T13:52:14.538Z,29.35
2023-10-10T13:54:41.990Z,28.42
2023-10-10T13:57:11.535Z,26.73
2023-10-10T13:59:39.070Z,24.77
2023-10-10T14:02:11.982Z,23.90
2023-10-10T14:04:49.640Z,23.48
2023-10-10T14:07:17.253Z,22.83
2023-10-10T14:10:02.283Z,22.80
2023-10-10T14:12:33.576Z,22.48
2023-10-10T14:15:02.530Z,21.95
2023-10-10T14:17:31.005Z,23.10
2023-10-10T14:19:59.857Z,22.65
2023-10-10T14:22:27.892Z,22.27
2023-10-10T14:24:59.500Z,24.20
2023-10-10T14:27:28.020Z,22.60
2023-10-10T14:29:58.794Z,23.55
2023-10-10T14:32:38.732Z,27.80
2023-10-10T14:35:08.193Z,31.73
2023-10-10T14:37:53.576Z,30.13
2023-10-10T14:40:24.459Z,29.35
2023-10-10T14:42:53.577Z,27.48
2023-10-10T14:45:25.344Z,26.50
2023-10-10T14:47:53.099Z,25.55
2023-10-10T14:50:24.581Z,24.92
2023-10-10T14:52:52.793Z,25.02
2023-10-10T14:55:26.676Z,26.67
2023-10-10T14:57:56.293Z,27.90
2023-10-10T15:00:29.588Z,31.70
2023-10-10T15:02:57.887Z,30.40
2023-10-10T15:05:25.927Z,29.63
2023-10-10T15:07:53.945Z,28.15
2023-10-10T15:10:27.433Z,26.63
2023-10-10T15:12:55.499Z,26.27
2023-10-10T15:15:24.434Z,26.85
2023-10-10T15:17:52.489Z,27.92
2023-10-10T15:20:20.338Z,27.60
2023-10-10T15:22:47.755Z,29.08
2023-10-10T15:25:16.554Z,30.70
2023-10-10T15:27:44.028Z,30.33
2023-10-10T15:30:12.219Z,30.10
2023-10-10T15:32:49.328Z,30.95
2023-10-10T15:35:18.489Z,31.95
2023-10-10T15:37:46.205Z,32.70
2023-10-10T15:40:33.759Z,32.10
2023-10-10T15:43:03.219Z,33.28
2023-10-10T15:45:38.635Z,34.40
2023-10-10T15:48:06.736Z,35.42
2023-10-10T15:50:34.182Z,33.45
2023-10-10T15:53:01.431Z,30.55
2023-10-10T15:55:28.642Z,33.83
2023-10-10T15:57:55.850Z,33.38
2023-10-10T16:00:33.550Z,32.58
2023-10-10T16:03:07.465Z,33.30
2023-10-10T16:05:42.616Z,36.22
2023-10-10T16:08:10.372Z,39.45
2023-10-10T16:10:41.704Z,44.03
2023-10-10T16:13:10.191Z,45.80
2023-10-10T16:15:38.524Z,44.30
2023-10-10T16:18:06.333Z,39.58
2023-10-10T16:20:37.106Z,37.67
2023-10-10T16:23:09.192Z,37.13
2023-10-10T16:25:38.330Z,41.38
2023-10-10T16:28:06.250Z,37.83
2023-10-10T16:30:36.141Z,40.38
2023-10-10T16:33:04.029Z,39.55
2023-10-10T16:35:34.124Z,43.83
2023-10-10T16:38:03.496Z,41.35
2023-10-10T16:40:31.366Z,41.13
2023-10-10T16:42:58.902Z,41.25
2023-10-10T16:45:26.245Z,45.47
2023-10-10T16:47:55.356Z,64.97
2023-10-10T16:50:23.157Z,54.17
2023-10-10T16:53:04.123Z,50.22
2023-10-10T16:55:37.788Z,46.63
2023-10-10T16:58:05.249Z,43.72
2023-10-10T17:00:36.169Z,43.40
2023-10-10T17:03:03.711Z,42.15
2023-10-10T17:05:37.501Z,51.20
2023-10-10T17:08:05.633Z,51.95
2023-10-10T17:10:33.540Z,53.00
2023-10-10T17:13:01.587Z,66.53
2023-10-10T17:15:28.862Z,61.72
2023-10-10T17:17:58.501Z,58.80
2023-10-10T17:20:26.250Z,51.97
2023-10-10T17:22:53.570Z,49.38
2023-10-10T17:25:20.798Z,45.45
2023-10-10T17:27:53.136Z,46.78
2023-10-10T17:30:22.701Z,42.58
2023-10-10T17:32:50.393Z,50.78
2023-10-10T17:35:18.888Z,50.00
2023-10-10T17:37:46.495Z,49.95
2023-10-10T17:40:14.545Z,46.22
2023-10-10T17:42:47.241Z,47.20
2023-10-10T17:45:14.595Z,41.90
2023-10-10T17:47:41.923Z,43.22
2023-10-10T17:50:09.435Z,41.47
2023-10-10T17:52:36.934Z,39.10
2023-10-10T17:55:04.274Z,47.15
2023-10-10T17:57:31.885Z,60.53
2023-10-10T17:59:59.352Z,53.90
2023-10-10T18:02:26.791Z,46.42
2023-10-10T18:04:54.215Z,45.92
2023-10-10T18:07:23.608Z,40.55
2023-10-10T18:09:56.637Z,41.50
2023-10-10T18:12:24.516Z,41.67
2023-10-10T18:14:55.105Z,38.00
2023-10-10T18:17:25.998Z,35.70
2023-10-10T18:19:53.286Z,34.40
2023-10-10T18:22:20.767Z,31.73
2023-10-10T18:24:48.741Z,31.97
2023-10-10T18:27:16.699Z,32.43
2023-10-10T18:29:43.920Z,31.60
2023-10-10T18:32:11.178Z,32.70
2023-10-10T18:34:43.112Z,31.57
2023-10-10T18:37:12.928Z,27.27
2023-10-10T18:39:40.483Z,25.50
2023-10-10T18:42:10.617Z,24.00
2023-10-10T18:44:38.692Z,23.63
2023-10-10T18:47:06.170Z,23.00
2023-10-10T18:49:35.078Z,23.23
2023-10-10T18:52:02.554Z,22.73
2023-10-10T18:54:31.804Z,25.77
2023-10-10T18:57:02.022Z,32.30
2023-10-10T18:59:29.406Z,33.10
2023-10-10T19:01:57.519Z,30.80
2023-10-10T19:04:26.146Z,26.07
2023-10-10T19:06:54.639Z,25.57
2023-10-10T19:09:24.460Z,25.67
2023-10-10T19:11:58.536Z,26.43
2023-10-10T19:14:34.974Z,25.83
2023-10-10T19:17:02.796Z,25.90
2023-10-10T19:19:32.910Z,26.47
2023-10-10T19:22:01.295Z,25.30
2023-10-10T19:24:28.959Z,26.30
2023-10-10T19:26:56.260Z,25.97
2023-10-10T19:29:24.994Z,27.13
2023-10-10T19:31:52.214Z,25.60
2023-10-10T19:34:19.464Z,26.43
2023-10-10T19:36:46.678Z,26.87
2023-10-10T19:39:14.001Z,26.53
2023-10-10T19:41:41.659Z,26.50
2023-10-10T19:44:09.491Z,26.33
2023-10-10T19:46:36.894Z,26.40
2023-10-10T19:49:06.030Z,25.67
2023-10-10T19:51:33.757Z,26.97
2023-10-10T19:54:00.935Z,25.30
2023-10-10T19:56:30.234Z,25.27
2023-10-10T19:58:57.733Z,25.70
2023-10-10T20:01:26.542Z,25.07
2023-10-10T20:03:56.915Z,25.43
2023-10-10T20:06:24.550Z,25.93
2023-10-10T20:08:53.788Z,26.30
2023-10-10T20:11:22.618Z,25.47
2023-10-10T20:13:49.927Z,25.67
2023-10-10T20:16:18.128Z,28.00
2023-10-10T20:18:45.904Z,26.90
2023-10-10T20:21:14.262Z,27.60
2023-10-10T20:23:43.427Z,26.83
2023-10-10T20:26:20.013Z,25.77
2023-10-10T20:28:49.322Z,24.17
2023-10-10T20:31:19.010Z,24.53
2023-10-10T20:33:49.170Z,23.90
2023-10-10T20:36:17.063Z,23.00
2023-10-10T20:38:45.241Z,23.63
2023-10-10T20:41:13.595Z,23.37
2023-10-10T20:43:42.080Z,22.58
2023-10-10T20:46:09.428Z,25.00
2023-10-10T20:48:37.040Z,25.02
2023-10-10T20:51:04.754Z,24.17
2023-10-10T20:53:32.716Z,22.25
2023-10-10T20:56:02.302Z,23.93
2023-10-10T20:58:30.253Z,23.63
2023-10-10T21:00:57.808Z,23.55
2023-10-10T21:03:25.249Z,22.80
2023-10-10T21:05:52.722Z,22.75
2023-10-10T21:08:20.127Z,21.67
2023-10-10T21:10:47.607Z,22.37
2023-10-10T21:13:16.521Z,22.15
2023-10-10T21:15:44.062Z,22.00
2023-10-10T21:18:11.506Z,21.70
2023-10-10T21:20:52.017Z,23.03
2023-10-10T21:23:28.388Z,21.13
2023-10-10T21:25:55.756Z,20.52
2023-10-10T21:28:24.012Z,22.50
2023-10-10T21:30:52.188Z,21.50
2023-10-10T21:33:19.848Z,22.48
2023-10-10T21:35:49.990Z,21.90
2023-10-10T21:38:18.627Z,22.10
2023-10-10T21:40:46.003Z,21.42
2023-10-10T21:43:13.703Z,22.13
2023-10-10T21:45:40.946Z,20.60
2023-10-10T21:48:11.627Z,21.67
2023-10-10T21:50:42.206Z,21.83
2023-10-10T21:53:09.678Z,21.85
2023-10-10T21:55:41.821Z,20.70
2023-10-10T21:58:09.486Z,21.08
2023-10-10T22:00:36.782Z,21.50
2023-10-10T22:03:08.050Z,20.33
2023-10-10T22:05:36.317Z,19.85
2023-10-10T22:08:05.831Z,20.83
2023-10-10T22:10:34.392Z,22.00
2023-10-10T22:13:02.362Z,21.63
2023-10-10T22:15:34.612Z,21.02
2023-10-10T22:18:05.493Z,21.02
2023-10-10T22:20:36.190Z,20.65
2023-10-10T22:23:05.921Z,20.85
2023-10-10T22:25:35.856Z,20.40
2023-10-10T22:28:04.520Z,18.52
2023-10-10T22:30:34.180Z,19.00
2023-10-10T22:33:03.992Z,18.70
2023-10-10T22:35:33.850Z,18.20
2023-10-10T22:38:01.573Z,18.02
2023-10-10T22:40:29.005Z,18.58
2023-10-10T22:42:56.962Z,16.83
2023-10-10T22:45:24.914Z,16.75
2023-10-10T22:47:55.823Z,17.52
2023-10-10T22:50:23.948Z,17.45
2023-10-10T22:52:53.744Z,17.98
2023-10-10T22:55:21.639Z,17.20
2023-10-10T22:57:52.701Z,17.42
2023-10-10T23:00:37.640Z,16.42
2023-10-10T23:03:06.891Z,16.13
2023-10-10T23:05:34.792Z,17.02
2023-10-10T23:08:07.217Z,16.35
2023-10-10T23:10:35.426Z,16.17
2023-10-10T23:13:05.892Z,15.80
2023-10-10T23:15:33.044Z,15.88
2023-10-10T23:18:01.672Z,15.85
2023-10-10T23:20:30.314Z,15.70
2023-10-10T23:22:58.193Z,14.85
2023-10-10T23:25:28.468Z,15.05
2023-10-10T23:27:57.424Z,15.10
2023-10-10T23:30:28.470Z,15.07
2023-10-10T23:32:57.142Z,14.50
2023-10-10T23:35:25.920Z,14.65
2023-10-10T23:37:54.468Z,14.32
2023-10-10T23:40:22.943Z,14.48
2023-10-10T23:42:52.728Z,13.70
2023-10-10T23:45:23.947Z,13.93
2023-10-10T23:47:53.028Z,12.98
2023-10-10T23:50:23.980Z,12.77
2023-10-10T23:52:55.457Z,12.27
2023-10-10T23:55:23.138Z,14.63
2023-10-10T23:57:51.437Z,12.38
